Time;durP1;ratioP1;P1;durP2;ratioP2;P2;SDS_P1;SDS_P2;PMS_P1;PMS_P2;Temp;Humidity;BMP_temperature;BMP_pressure;BME280_temperature;BME280_humidity;BME280_pressure;Samples;Min_cycle;Max_cycle;Signal;HPM_P1;HPM_P2
2023/03/30 03:02:05;;;;;;;51.00;47.97;;;10.60;99.90;;;;;;5218993;23;20637;-78
2023/03/30 03:04:35;;;;;;;40.43;37.27;;;10.50;99.90;;;;;;4921605;29;20182;-78
2023/03/30 03:07:01;;;;;;;32.40;30.03;;;10.60;99.90;;;;;;4919080;29;20217;-78
2023/03/30 03:09:28;;;;;;;50.67;47.10;;;10.80;99.90;;;;;;4917703;29;20230;-76
2023/03/30 03:11:54;;;;;;;31.10;28.47;;;10.90;99.90;;;;;;4921041;29;20720;-77
2023/03/30 03:14:20;;;;;;;54.93;51.33;;;10.90;99.90;;;;;;4915442;29;20191;-76
2023/03/30 03:16:46;;;;;;;77.67;69.67;;;10.90;99.90;;;;;;4915524;29;20483;-76
2023/03/30 03:19:12;;;;;;;38.83;35.90;;;11.10;99.90;;;;;;4914733;29;20222;-76
2023/03/30 03:21:38;;;;;;;35.33;32.33;;;11.10;99.90;;;;;;4915030;29;20241;-76
2023/03/30 03:24:05;;;;;;;50.13;46.40;;;11.40;99.90;;;;;;4898291;29;20183;-76
2023/03/30 03:26:31;;;;;;;46.63;43.03;;;11.60;99.90;;;;;;4915237;29;20187;-77
2023/03/30 03:28:58;;;;;;;39.77;36.60;;;11.70;99.90;;;;;;4898212;29;20559;-77
2023/03/30 03:31:25;;;;;;;28.57;26.13;;;11.60;99.90;;;;;;4914954;29;20266;-76
2023/03/30 03:33:51;;;;;;;18.67;10.77;;;11.70;99.90;;;;;;4898263;29;20266;-77
2023/03/30 03:36:18;;;;;;;17.57;13.13;;;11.70;99.90;;;;;;4898502;29;20242;-77
2023/03/30 03:38:44;;;;;;;15.40;12.37;;;11.70;99.90;;;;;;4897800;29;20266;-77
2023/03/30 03:41:10;;;;;;;17.50;15.10;;;11.60;99.90;;;;;;4898169;29;20294;-77
2023/03/30 03:43:36;;;;;;;18.17;16.10;;;11.60;99.90;;;;;;4899852;29;20186;-77
2023/03/30 03:46:01;;;;;;;25.27;22.93;;;11.60;99.90;;;;;;4900280;29;20191;-78
2023/03/30 03:48:27;;;;;;;26.73;24.77;;;11.70;99.90;;;;;;4903575;29;20207;-78
2023/03/30 03:50:55;;;;;;;27.47;25.00;;;11.70;99.90;;;;;;4909987;29;20207;-78
2023/03/30 03:53:22;;;;;;;20.53;17.27;;;11.70;99.90;;;;;;4915810;29;20211;-79
2023/03/30 03:55:48;;;;;;;24.83;22.43;;;11.60;99.90;;;;;;4899453;29;20183;-78
2023/03/30 03:58:15;;;;;;;23.50;21.47;;;11.60;99.90;;;;;;4899460;29;20185;-78
2023/03/30 04:00:41;;;;;;;26.57;24.07;;;11.60;99.90;;;;;;4899578;29;20286;-78
2023/03/30 04:03:07;;;;;;;47.33;43.30;;;11.60;99.90;;;;;;4900114;29;20218;-78
2023/03/30 04:05:34;;;;;;;49.00;45.50;;;11.60;99.90;;;;;;4917313;29;20281;-78
2023/03/30 04:08:01;;;;;;;49.00;45.53;;;11.50;99.90;;;;;;4917151;29;20690;-78
2023/03/30 04:10:27;;;;;;;46.90;43.20;;;11.50;99.90;;;;;;4900816;29;20258;-79
2023/03/30 04:12:57;;;;;;;31.90;29.63;;;11.50;99.90;;;;;;4902392;29;20272;-78
2023/03/30 04:15:24;;;;;;;27.53;25.03;;;11.60;99.90;;;;;;4918899;29;20544;-79
2023/03/30 04:17:56;;;;;;;27.90;25.10;;;11.50;99.90;;;;;;4918405;29;20183;-79
2023/03/30 04:20:23;;;;;;;28.27;22.20;;;11.50;99.90;;;;;;4909033;29;20191;-78
2023/03/30 04:22:49;;;;;;;19.33;17.30;;;11.40;99.90;;;;;;4927831;29;20211;-78
2023/03/30 04:25:15;;;;;;;18.93;13.90;;;11.40;99.90;;;;;;4912840;29;20191;-78
2023/03/30 04:27:44;;;;;;;18.37;8.73;;;11.40;99.90;;;;;;4902599;29;20258;-78
2023/03/30 04:30:11;;;;;;;13.13;6.70;;;11.40;99.90;;;;;;4928011;29;20258;-78
2023/03/30 04:32:40;;;;;;;20.60;6.43;;;11.40;99.90;;;;;;4924949;29;20214;-79
2023/03/30 04:35:07;;;;;;;10.37;7.13;;;11.30;99.90;;;;;;4900902;29;20275;-79
2023/03/30 04:37:33;;;;;;;16.90;9.97;;;11.30;99.90;;;;;;4900560;29;20179;-79
2023/03/30 04:39:59;;;;;;;15.97;10.43;;;11.20;99.90;;;;;;4900102;29;20194;-79
2023/03/30 04:42:33;;;;;;;21.07;11.00;;;11.20;99.90;;;;;;4900069;29;20203;-78
2023/03/30 04:45:01;;;;;;;14.67;12.27;;;11.30;99.90;;;;;;4900671;29;20198;-78
2023/03/30 04:47:28;;;;;;;14.80;12.03;;;11.20;99.90;;;;;;4917381;29;20191;-79
2023/03/30 04:49:54;;;;;;;18.83;12.23;;;11.20;99.90;;;;;;4899845;29;20251;-78
2023/03/30 04:52:20;;;;;;;19.90;9.90;;;11.20;99.90;;;;;;4903966;29;20214;-78
2023/03/30 04:54:46;;;;;;;13.80;8.83;;;11.20;99.90;;;;;;4912606;29;20183;-78
2023/03/30 04:57:14;;;;;;;15.67;8.53;;;11.20;99.90;;;;;;4926203;29;20210;-78
2023/03/30 04:59:43;;;;;;;11.57;8.20;;;11.20;99.90;;;;;;4907435;29;20222;-79
2023/03/30 05:02:10;;;;;;;16.13;9.20;;;11.10;99.90;;;;;;4899851;29;20234;-79
2023/03/30 05:04:36;;;;;;;14.33;9.57;;;11.10;99.90;;;;;;4918742;29;20195;-78
2023/03/30 05:07:03;;;;;;;12.43;9.43;;;11.10;99.90;;;;;;4903462;29;20186;-78
2023/03/30 05:09:29;;;;;;;14.57;8.07;;;11.10;99.90;;;;;;4903262;29;20194;-78
2023/03/30 05:11:55;;;;;;;13.13;8.00;;;11.10;99.90;;;;;;4903748;29;20214;-78
2023/03/30 05:14:21;;;;;;;15.20;12.93;;;11.10;99.90;;;;;;4903394;29;20205;-78
2023/03/30 05:16:46;;;;;;;23.60;13.90;;;11.10;99.90;;;;;;4903105;29;20185;-78
2023/03/30 05:19:12;;;;;;;24.47;9.50;;;11.10;99.90;;;;;;4903085;29;20189;-78
2023/03/30 05:21:38;;;;;;;18.07;8.40;;;11.10;99.90;;;;;;4902900;29;20286;-78
2023/03/30 05:24:04;;;;;;;14.70;9.30;;;11.10;99.90;;;;;;4920286;29;20585;-77
2023/03/30 05:26:30;;;;;;;23.30;19.13;;;11.10;99.90;;;;;;4920237;29;20609;-78
2023/03/30 05:28:56;;;;;;;22.23;17.20;;;11.10;99.90;;;;;;4902509;29;20183;-78
2023/03/30 05:31:22;;;;;;;22.17;17.83;;;11.10;99.90;;;;;;4919880;29;20735;-77
2023/03/30 05:33:47;;;;;;;23.57;12.97;;;11.10;99.90;;;;;;4926639;29;20183;-78
2023/03/30 05:36:13;;;;;;;11.77;9.17;;;11.20;99.90;;;;;;4932968;29;20285;-79
2023/03/30 05:38:39;;;;;;;11.73;8.40;;;11.20;99.90;;;;;;4907832;29;20184;-78
2023/03/30 05:41:05;;;;;;;17.23;11.70;;;11.20;99.90;;;;;;4921783;29;20796;-79
2023/03/30 05:43:35;;;;;;;20.37;17.43;;;11.20;99.90;;;;;;4920286;29;20194;-79
2023/03/30 05:46:02;;;;;;;25.33;21.53;;;11.20;99.90;;;;;;4904301;29;20202;-78
2023/03/30 05:48:28;;;;;;;23.97;21.87;;;11.20;99.90;;;;;;4923533;29;20187;-78
2023/03/30 05:50:54;;;;;;;25.53;23.33;;;11.20;99.90;;;;;;4914805;29;20212;-78
2023/03/30 05:53:20;;;;;;;28.53;25.70;;;11.30;99.90;;;;;;4930834;29;20226;-78
2023/03/30 05:55:47;;;;;;;29.37;26.77;;;11.30;99.90;;;;;;4911456;29;20187;-78
2023/03/30 05:58:13;;;;;;;28.67;26.27;;;11.30;99.90;;;;;;4908955;29;20191;-78
2023/03/30 06:00:40;;;;;;;35.43;33.07;;;11.40;99.90;;;;;;4901579;29;20266;-79
2023/03/30 06:03:07;;;;;;;38.63;35.47;;;11.40;99.90;;;;;;4919259;29;20191;-79
2023/03/30 06:05:35;;;;;;;176.80;165.97;;;11.40;99.90;;;;;;4901876;29;20201;-78
2023/03/30 06:08:03;;;;;;;25.57;22.87;;;11.40;99.90;;;;;;4917831;29;20286;-78
2023/03/30 06:10:29;;;;;;;16.07;10.70;;;11.40;99.90;;;;;;4900967;29;20274;-78
2023/03/30 06:12:55;;;;;;;13.50;8.67;;;11.40;99.90;;;;;;4901617;29;20246;-78
2023/03/30 06:15:21;;;;;;;16.83;10.57;;;11.40;99.90;;;;;;4900741;29;20218;-78
2023/03/30 06:17:46;;;;;;;14.67;11.30;;;11.40;99.90;;;;;;4919436;29;20720;-78
2023/03/30 06:20:12;;;;;;;17.67;11.77;;;11.40;99.90;;;;;;4903492;29;20247;-78
2023/03/30 06:22:40;;;;;;;22.33;19.53;;;11.40;99.90;;;;;;4912308;29;20229;-78
2023/03/30 06:25:07;;;;;;;25.80;23.20;;;11.40;99.90;;;;;;4891081;29;20193;-78
2023/03/30 06:27:34;;;;;;;28.27;25.47;;;11.30;99.90;;;;;;4902149;29;20191;-78
2023/03/30 06:30:00;;;;;;;41.03;37.40;;;11.30;99.90;;;;;;4918345;29;20270;-78
2023/03/30 06:32:26;;;;;;;64.43;59.70;;;11.30;99.90;;;;;;4900619;29;20310;-78
2023/03/30 06:34:52;;;;;;;55.00;51.00;;;11.30;99.90;;;;;;4900298;29;20245;-78
2023/03/30 06:37:19;;;;;;;53.50;49.47;;;11.30;99.90;;;;;;4900421;29;20207;-78
2023/03/30 06:39:45;;;;;;;22.93;20.20;;;11.30;99.90;;;;;;4900645;29;20776;-78
2023/03/30 06:42:11;;;;;;;35.13;32.40;;;11.30;99.90;;;;;;4917973;29;20219;-78
2023/03/30 06:44:37;;;;;;;34.17;31.43;;;11.30;99.90;;;;;;4901598;29;20186;-78
2023/03/30 06:47:04;;;;;;;23.20;21.30;;;11.30;99.90;;;;;;4909278;29;20298;-78
2023/03/30 06:49:31;;;;;;;16.87;15.20;;;11.40;99.90;;;;;;4925475;29;20266;-79
2023/03/30 06:51:57;;;;;;;19.67;14.83;;;11.40;99.90;;;;;;4910732;29;20654;-78
2023/03/30 06:54:23;;;;;;;19.87;7.17;;;11.40;99.90;;;;;;4903101;29;20215;-79
2023/03/30 06:56:51;;;;;;;12.90;9.80;;;11.50;99.90;;;;;;4901324;29;20729;-79
2023/03/30 06:59:17;;;;;;;14.17;9.77;;;11.50;99.90;;;;;;4901377;29;20186;-78
2023/03/30 07:01:43;;;;;;;15.07;11.00;;;11.60;99.90;;;;;;4917611;29;20226;-79
2023/03/30 07:04:09;;;;;;;19.03;11.43;;;11.70;99.90;;;;;;4902715;29;20651;-79
2023/03/30 07:06:35;;;;;;;21.57;12.03;;;11.90;99.90;;;;;;4902028;29;20187;-79
2023/03/30 07:09:03;;;;;;;19.67;14.87;;;12.00;99.90;;;;;;4918626;29;20189;-79
2023/03/30 07:11:28;;;;;;;17.30;9.63;;;12.10;99.90;;;;;;4901832;29;20274;-78
2023/03/30 07:13:57;;;;;;;18.90;10.17;;;12.20;99.90;;;;;;4901769;29;20183;-79
2023/03/30 07:16:23;;;;;;;24.27;21.40;;;12.30;99.90;;;;;;4901203;29;20673;-79
2023/03/30 07:18:49;;;;;;;19.67;11.40;;;12.50;99.90;;;;;;4900856;29;20624;-79
2023/03/30 07:21:15;;;;;;;27.50;20.10;;;12.70;99.90;;;;;;4917795;29;20203;-79
2023/03/30 07:23:42;;;;;;;62.37;57.93;;;12.90;99.90;;;;;;4901118;29;20183;-79
2023/03/30 07:26:08;;;;;;;21.50;15.53;;;13.00;99.90;;;;;;4900679;29;20655;-78
2023/03/30 07:28:37;;;;;;;22.57;19.67;;;13.20;99.90;;;;;;4901009;29;20183;-79
2023/03/30 07:31:04;;;;;;;28.10;25.70;;;13.20;99.90;;;;;;4904309;29;20206;-78
2023/03/30 07:33:31;;;;;;;19.23;13.40;;;13.20;99.90;;;;;;4931658;29;20311;-78
2023/03/30 07:35:56;;;;;;;26.37;20.27;;;13.30;99.90;;;;;;4913011;29;20206;-78
2023/03/30 07:38:23;;;;;;;21.07;18.87;;;13.30;99.90;;;;;;4919475;29;20179;-78
2023/03/30 07:40:49;;;;;;;20.93;15.77;;;13.30;99.90;;;;;;4931078;29;20230;-78
2023/03/30 07:43:15;;;;;;;31.67;28.93;;;13.20;99.90;;;;;;4905250;29;20202;-78
2023/03/30 07:45:41;;;;;;;19.37;15.70;;;13.00;99.90;;;;;;4899397;29;20222;-78
2023/03/30 07:48:06;;;;;;;30.77;27.60;;;12.80;99.90;;;;;;4899425;29;20187;-77
2023/03/30 07:50:32;;;;;;;41.47;38.43;;;12.70;99.90;;;;;;4915172;29;20218;-78
2023/03/30 07:52:58;;;;;;;38.03;34.93;;;12.50;99.90;;;;;;4905677;29;20210;-78
2023/03/30 07:55:24;;;;;;;20.50;18.73;;;12.50;99.90;;;;;;4907992;29;20179;-78
2023/03/30 07:57:51;;;;;;;17.63;15.83;;;12.40;99.90;;;;;;4901246;29;20205;-79
2023/03/30 08:00:18;;;;;;;95.70;88.93;;;12.40;99.90;;;;;;4899417;29;20592;-79
2023/03/30 08:02:43;;;;;;;126.70;118.17;;;12.40;99.90;;;;;;4901196;29;20191;-79
2023/03/30 08:05:12;;;;;;;260.60;243.80;;;12.30;99.90;;;;;;4900677;29;20246;-79
2023/03/30 08:07:38;;;;;;;79.23;74.63;;;12.30;99.90;;;;;;4899366;29;20186;-78
2023/03/30 08:10:07;;;;;;;27.07;24.63;;;12.40;99.90;;;;;;4900089;29;20195;-81
2023/03/30 08:12:33;;;;;;;23.27;20.93;;;12.40;99.90;;;;;;4918719;29;20226;-80
2023/03/30 08:15:05;;;;;;;15.60;14.17;;;12.30;99.90;;;;;;4919257;29;20187;-81
2023/03/30 08:17:31;;;;;;;15.83;10.40;;;12.40;99.90;;;;;;4919012;29;20183;-78
2023/03/30 08:20:09;;;;;;;18.57;12.93;;;12.40;99.90;;;;;;4919469;29;20239;-77
2023/03/30 08:22:37;;;;;;;12.23;10.77;;;12.40;99.90;;;;;;4928414;29;20271;-79
2023/03/30 08:25:04;;;;;;;11.47;9.20;;;12.50;99.90;;;;;;4905809;29;20254;-80
2023/03/30 08:27:31;;;;;;;15.77;10.90;;;12.50;99.90;;;;;;4919707;29;20195;-80
2023/03/30 08:30:02;;;;;;;13.73;11.93;;;12.50;99.90;;;;;;4901944;29;20247;-80
2023/03/30 08:32:33;;;;;;;18.43;16.67;;;12.50;99.90;;;;;;4901885;29;20231;-80
2023/03/30 08:34:59;;;;;;;36.17;32.93;;;12.50;99.90;;;;;;4918772;29;20198;-80
2023/03/30 08:37:28;;;;;;;64.47;60.13;;;12.40;99.90;;;;;;4902407;29;20183;-80
2023/03/30 08:39:57;;;;;;;19.00;16.97;;;12.30;99.90;;;;;;4921471;29;20183;-80
2023/03/30 08:42:40;;;;;;;31.00;28.70;;;12.30;99.90;;;;;;4923143;29;20289;-80
2023/03/30 08:45:10;;;;;;;48.20;45.17;;;12.20;99.90;;;;;;4923365;29;20525;-82
2023/03/30 08:47:40;;;;;;;42.43;39.43;;;12.20;99.90;;;;;;4913956;29;20176;-79
2023/03/30 08:50:07;;;;;;;17.43;13.13;;;12.20;99.90;;;;;;4918914;29;20263;-78
2023/03/30 08:52:35;;;;;;;41.57;38.83;;;12.30;99.90;;;;;;4935557;29;20550;-80
2023/03/30 08:55:02;;;;;;;52.87;48.97;;;12.30;99.90;;;;;;4919853;29;20183;-80
2023/03/30 08:57:44;;;;;;;12.33;11.27;;;12.50;99.90;;;;;;4921265;29;20193;-80
2023/03/30 09:00:28;;;;;;;16.87;13.30;;;12.70;99.90;;;;;;4932150;29;20282;-81
2023/03/30 09:03:12;;;;;;;86.23;81.73;;;12.80;99.90;;;;;;4908996;29;20222;-80
2023/03/30 09:05:48;;;;;;;13.60;12.27;;;12.90;99.90;;;;;;4906847;29;20186;-80
2023/03/30 09:08:20;;;;;;;25.73;23.37;;;13.00;99.90;;;;;;4923004;29;20619;-79
2023/03/30 09:11:12;;;;;;;21.23;14.80;;;13.00;99.90;;;;;;4912856;29;20206;-79
2023/03/30 09:13:40;;;;;;;15.83;12.23;;;12.90;99.90;;;;;;4916586;29;20260;-79
2023/03/30 09:16:17;;;;;;;19.90;18.07;;;12.90;99.90;;;;;;4957450;23;20720;-81
2023/03/30 09:18:45;;;;;;;23.40;21.03;;;12.80;99.90;;;;;;4921200;29;20224;-80
2023/03/30 09:21:12;;;;;;;13.87;12.63;;;12.70;99.90;;;;;;4922336;29;20179;-80
2023/03/30 09:23:38;;;;;;;13.90;12.53;;;12.70;99.90;;;;;;4922784;29;20194;-81
2023/03/30 09:26:17;;;;;;;18.20;12.43;;;12.60;99.90;;;;;;4928201;29;20259;-80
2023/03/30 09:29:05;;;;;;;15.47;11.73;;;12.50;99.90;;;;;;4919939;29;20182;-81
2023/03/30 09:31:40;;;;;;;14.33;12.93;;;12.40;99.90;;;;;;4904068;29;20226;-82
2023/03/30 09:34:26;;;;;;;15.43;11.53;;;12.40;99.90;;;;;;4932059;29;20206;-81
2023/03/30 09:37:02;;;;;;;15.53;10.50;;;12.30;99.90;;;;;;4906697;29;20218;-81
2023/03/30 09:39:29;;;;;;;12.03;10.90;;;12.40;99.90;;;;;;4903916;29;20265;-82
2023/03/30 09:42:32;;;;;;;15.10;11.53;;;12.40;99.90;;;;;;4920339;29;20183;-81
2023/03/30 09:45:24;;;;;;;13.20;12.13;;;12.40;99.90;;;;;;4855224;29;20249;-81
2023/03/30 09:47:49;;;;;;;13.33;11.37;;;12.40;99.90;;;;;;4917189;29;20207;-80
2023/03/30 09:50:23;;;;;;;14.50;12.87;;;12.50;99.90;;;;;;4906650;29;20197;-82
2023/03/30 09:53:01;;;;;;;16.53;15.07;;;12.50;99.90;;;;;;4925601;29;20211;-81
2023/03/30 09:55:31;;;;;;;15.90;13.40;;;12.60;99.90;;;;;;4922584;29;20241;-81
2023/03/30 09:58:11;;;;;;;15.67;14.20;;;12.60;99.90;;;;;;4901716;29;20231;-81
2023/03/30 10:00:38;;;;;;;20.83;19.17;;;12.60;99.90;;;;;;4900867;29;20191;-81
2023/03/30 10:03:07;;;;;;;20.93;18.97;;;12.60;99.90;;;;;;4902609;29;20201;-82
2023/03/30 10:05:35;;;;;;;19.70;17.77;;;12.70;99.90;;;;;;4902276;29;20207;-82
2023/03/30 10:08:06;;;;;;;28.67;26.33;;;12.70;99.90;;;;;;4906800;29;20736;-81
2023/03/30 10:10:39;;;;;;;20.87;19.00;;;12.80;99.90;;;;;;4903794;29;20187;-82
2023/03/30 10:13:12;;;;;;;16.70;15.00;;;12.70;99.90;;;;;;4903820;29;20234;-80
2023/03/30 10:15:43;;;;;;;18.57;17.17;;;12.80;99.90;;;;;;4903786;29;20245;-81
2023/03/30 10:18:18;;;;;;;15.50;14.00;;;12.80;99.90;;;;;;4903576;29;20179;-79
2023/03/30 10:20:51;;;;;;;14.23;12.73;;;12.90;99.90;;;;;;4922263;29;20674;-79
2023/03/30 10:23:21;;;;;;;21.77;20.00;;;13.00;99.90;;;;;;4931202;29;20656;-79
2023/03/30 10:25:49;;;;;;;22.90;20.83;;;13.00;99.90;;;;;;4935237;29;20713;-80
2023/03/30 10:28:26;;;;;;;16.93;15.87;;;13.10;99.90;;;;;;4905139;29;20239;-80
2023/03/30 10:30:56;;;;;;;11.87;10.83;;;13.00;99.90;;;;;;4910558;29;20334;-79
2023/03/30 10:33:22;;;;;;;16.83;13.20;;;13.10;99.90;;;;;;4908973;29;20259;-79
2023/03/30 10:35:52;;;;;;;15.83;12.33;;;13.10;99.90;;;;;;4909872;29;20203;-79
2023/03/30 10:38:19;;;;;;;14.00;12.57;;;13.10;99.90;;;;;;4910584;29;20202;-79
2023/03/30 10:40:46;;;;;;;13.17;12.17;;;13.20;99.90;;;;;;4920965;29;20187;-79
2023/03/30 10:43:19;;;;;;;15.70;14.13;;;13.30;99.90;;;;;;4929281;29;20223;-81
2023/03/30 10:45:55;;;;;;;48.17;45.40;;;13.50;99.90;;;;;;4905284;29;20218;-80
2023/03/30 10:48:41;;;;;;;29.93;28.07;;;13.50;99.90;;;;;;4910400;29;20258;-80
2023/03/30 10:51:22;;;;;;;10.73;9.47;;;13.50;99.90;;;;;;4924730;29;20191;-80
2023/03/30 10:54:16;;;;;;;30.53;28.43;;;13.50;99.90;;;;;;4925040;29;20182;-80
2023/03/30 10:56:50;;;;;;;25.67;23.73;;;13.50;99.90;;;;;;4922055;29;20207;-81
2023/03/30 10:59:27;;;;;;;22.53;20.90;;;13.50;99.90;;;;;;4901845;29;20718;-81
2023/03/30 11:02:20;;;;;;;14.17;12.40;;;13.70;99.90;;;;;;4901465;29;20691;-80
2023/03/30 11:04:51;;;;;;;12.57;9.17;;;13.90;99.90;;;;;;4901860;29;20247;-80
2023/03/30 11:07:54;;;;;;;23.30;21.73;;;14.10;99.90;;;;;;4901523;29;20756;-80
2023/03/30 11:10:28;;;;;;;16.03;14.60;;;14.10;99.90;;;;;;4889577;29;20195;-80
2023/03/30 11:12:57;;;;;;;12.30;11.40;;;14.00;99.90;;;;;;4906256;29;20537;-79
2023/03/30 11:15:26;;;;;;;13.60;7.37;;;13.90;99.90;;;;;;4935390;29;20345;-79
2023/03/30 11:17:57;;;;;;;6.47;5.97;;;13.80;99.90;;;;;;4905156;29;20220;-81
2023/03/30 11:20:33;;;;;;;6.13;5.43;;;13.80;99.90;;;;;;4902145;29;20195;-81
2023/03/30 11:23:09;;;;;;;7.97;5.67;;;13.80;99.90;;;;;;4902109;29;20226;-80
2023/03/30 11:25:44;;;;;;;6.70;6.00;;;13.70;99.90;;;;;;4903406;29;20262;-80
2023/03/30 11:28:17;;;;;;;7.43;5.97;;;13.80;99.90;;;;;;4918611;29;20183;-80
2023/03/30 11:30:44;;;;;;;10.40;6.00;;;13.80;99.90;;;;;;4900708;29;20190;-80
2023/03/30 11:33:35;;;;;;;12.23;6.20;;;13.90;99.90;;;;;;4917731;29;20187;-81
2023/03/30 11:36:04;;;;;;;14.10;9.53;;;13.90;99.90;;;;;;4917503;29;20629;-80
2023/03/30 11:38:50;;;;;;;9.80;7.50;;;13.90;99.90;;;;;;4900385;29;20191;-80
2023/03/30 11:41:30;;;;;;;8.00;6.40;;;13.90;99.90;;;;;;4902558;29;20190;-80
2023/03/30 11:43:56;;;;;;;7.43;6.27;;;13.90;99.90;;;;;;4902220;29;20699;-80
2023/03/30 11:46:46;;;;;;;7.83;6.77;;;13.80;99.90;;;;;;4901383;29;20203;-81
2023/03/30 11:49:41;;;;;;;9.40;7.90;;;13.90;99.90;;;;;;4901711;29;20185;-80
2023/03/30 11:52:49;;;;;;;8.70;5.50;;;14.40;99.90;;;;;;4918804;29;20194;-80
2023/03/30 11:55:35;;;;;;;11.47;10.60;;;14.70;99.90;;;;;;4901284;29;20207;-81
2023/03/30 11:58:04;;;;;;;18.67;17.17;;;15.20;99.90;;;;;;4890897;29;20190;-80
2023/03/30 12:00:54;;;;;;;15.13;14.10;;;15.50;99.90;;;;;;4901065;29;20194;-81
2023/03/30 12:03:37;;;;;;;11.30;6.00;;;15.40;99.90;;;;;;4920987;29;20225;-80
2023/03/30 12:06:32;;;;;;;6.87;6.27;;;15.50;99.90;;;;;;4926584;29;20471;-80
2023/03/30 12:09:21;;;;;;;9.93;7.30;;;15.30;99.90;;;;;;4912104;29;20218;-79
2023/03/30 12:12:02;;;;;;;9.40;6.60;;;15.20;99.90;;;;;;4902211;29;20205;-80
2023/03/30 12:14:41;;;;;;;12.97;5.83;;;15.10;99.90;;;;;;4906332;29;20178;-81
2023/03/30 12:17:33;;;;;;;8.17;5.53;;;14.90;99.90;;;;;;4908519;29;20655;-80
2023/03/30 12:20:24;;;;;;;6.23;5.63;;;14.90;99.90;;;;;;4907465;29;20621;-81
2023/03/30 12:23:09;;;;;;;9.43;5.33;;;14.90;99.90;;;;;;4919421;29;20202;-80
2023/03/30 12:25:58;;;;;;;10.60;7.00;;;15.00;99.90;;;;;;4918769;29;20208;-81
2023/03/30 12:28:25;;;;;;;9.37;6.27;;;14.90;99.90;;;;;;4906306;29;20211;-81
2023/03/30 12:30:58;;;;;;;9.50;6.93;;;14.90;99.90;;;;;;4905423;29;20179;-82
2023/03/30 12:33:33;;;;;;;9.07;7.50;;;14.90;99.90;;;;;;4905354;29;20225;-80
2023/03/30 12:36:26;;;;;;;9.70;8.50;;;14.90;99.90;;;;;;4904889;29;20206;-81
2023/03/30 12:38:56;;;;;;;9.60;8.53;;;15.10;99.90;;;;;;4924315;29;20231;-80
2023/03/30 12:41:25;;;;;;;7.87;6.03;;;15.20;99.90;;;;;;4918325;29;20191;-79
2023/03/30 12:43:50;;;;;;;13.00;7.70;;;15.20;99.90;;;;;;4915919;29;20643;-80
2023/03/30 12:46:24;;;;;;;9.40;7.20;;;15.30;99.90;;;;;;4921386;29;20199;-81
2023/03/30 12:49:03;;;;;;;17.00;15.40;;;15.70;99.90;;;;;;4925062;29;20183;-81
2023/03/30 12:51:40;;;;;;;17.87;16.10;;;15.80;99.90;;;;;;4910391;29;20183;-80
2023/03/30 12:54:22;;;;;;;14.77;12.87;;;15.80;99.90;;;;;;4914710;29;20206;-80
2023/03/30 12:57:16;;;;;;;13.30;12.00;;;15.70;99.90;;;;;;4933156;29;20213;-81
2023/03/30 12:59:47;;;;;;;25.93;24.00;;;16.00;99.90;;;;;;4904636;29;20194;-82
2023/03/30 13:02:29;;;;;;;26.07;24.30;;;16.60;99.90;;;;;;4922130;29;20276;-82
2023/03/30 13:04:55;;;;;;;23.50;21.93;;;17.50;99.90;;;;;;4905082;29;20561;-81
2023/03/30 13:07:24;;;;;;;10.37;6.53;;;18.80;99.90;;;;;;4922926;29;20246;-81
2023/03/30 13:09:55;;;;;;;14.33;13.13;;;18.70;99.90;;;;;;4904730;29;20188;-81
2023/03/30 13:12:31;;;;;;;12.03;10.87;;;18.50;99.90;;;;;;4904805;29;20187;-81
2023/03/30 13:15:15;;;;;;;19.80;18.27;;;18.30;99.90;;;;;;4921244;29;20350;-81
2023/03/30 13:17:59;;;;;;;18.73;17.13;;;17.90;99.90;;;;;;4920891;29;20674;-84
2023/03/30 13:20:36;;;;;;;19.03;17.70;;;17.60;99.90;;;;;;4909385;29;20179;-79
2023/03/30 13:23:08;;;;;;;16.63;15.40;;;17.60;99.90;;;;;;4925734;29;20214;-79
2023/03/30 13:25:38;;;;;;;14.63;13.67;;;17.80;99.90;;;;;;4925809;29;20206;-78
2023/03/30 13:28:44;;;;;;;13.10;12.00;;;19.00;99.90;;;;;;4942412;29;20195;-79
2023/03/30 13:31:28;;;;;;;16.67;15.27;;;18.80;99.90;;;;;;4923019;29;20592;-81
2023/03/30 13:34:22;;;;;;;19.10;17.73;;;19.40;99.90;;;;;;4922020;29;20242;-81
2023/03/30 13:37:19;;;;;;;17.17;15.90;;;20.00;99.90;;;;;;4905186;29;20207;-82
2023/03/30 13:39:47;;;;;;;16.10;14.63;;;19.90;99.90;;;;;;4921185;29;20191;-83
2023/03/30 13:42:22;;;;;;;17.50;16.20;;;19.30;99.90;;;;;;4904298;29;20206;-84
2023/03/30 13:45:00;;;;;;;19.63;18.37;;;18.70;99.90;;;;;;4904460;29;20187;-83
2023/03/30 13:47:57;;;;;;;18.77;17.57;;;17.80;99.90;;;;;;4903893;29;20193;-83
2023/03/30 13:50:27;;;;;;;21.87;20.53;;;17.20;99.90;;;;;;4903800;29;20189;-80
2023/03/30 13:52:56;;;;;;;21.73;20.13;;;16.80;99.90;;;;;;4921191;29;20531;-81
2023/03/30 13:55:29;;;;;;;26.27;24.37;;;17.20;99.90;;;;;;4905596;29;20306;-83
2023/03/30 13:58:01;;;;;;;23.10;21.27;;;16.90;99.90;;;;;;4926975;29;20200;-83
2023/03/30 14:00:49;;;;;;;16.40;15.27;;;16.80;99.90;;;;;;4909227;29;20730;-81
2023/03/30 14:03:29;;;;;;;23.17;21.57;;;16.90;99.90;;;;;;4911785;29;20246;-84
2023/03/30 14:06:01;;;;;;;20.80;19.03;;;17.50;99.90;;;;;;4913319;29;20206;-83
2023/03/30 14:08:29;;;;;;;22.00;20.53;;;17.50;99.90;;;;;;4918334;29;20191;-82
2023/03/30 14:10:55;;;;;;;15.47;14.23;;;18.30;99.90;;;;;;4925058;29;20183;-81
2023/03/30 14:13:22;;;;;;;14.93;13.60;;;19.60;99.90;;;;;;4905661;29;20567;-80
2023/03/30 14:15:50;;;;;;;25.60;24.10;;;20.40;99.90;;;;;;4917833;29;20226;-80
2023/03/30 14:18:24;;;;;;;30.60;28.77;;;19.90;99.90;;;;;;4918864;29;20283;-82
2023/03/30 14:20:51;;;;;;;12.37;11.17;;;19.60;99.90;;;;;;4921144;29;20191;-80
2023/03/30 14:23:33;;;;;;;9.63;8.73;;;20.10;99.90;;;;;;4938316;29;20218;-80
2023/03/30 14:26:06;;;;;;;10.23;9.32;;;20.80;99.90;;;;;;4924282;29;20203;-80
2023/03/30 14:28:36;;;;;;;10.52;9.68;;;21.50;99.90;;;;;;4924556;29;20179;-80
2023/03/30 14:31:11;;;;;;;24.42;22.90;;;22.00;99.90;;;;;;4924255;29;20259;-83
2023/03/30 14:33:39;;;;;;;22.15;20.75;;;21.70;99.90;;;;;;4904077;29;20601;-82
2023/03/30 14:36:07;;;;;;;27.58;25.75;;;20.80;99.90;;;;;;4902783;29;20576;-82
2023/03/30 14:38:43;;;;;;;9.73;8.87;;;19.10;99.90;;;;;;4902534;29;20277;-82
2023/03/30 14:41:16;;;;;;;10.97;7.97;;;17.90;99.90;;;;;;4902532;29;20191;-81
2023/03/30 14:43:49;;;;;;;11.83;11.17;;;17.50;99.90;;;;;;4902745;29;20211;-82
2023/03/30 14:46:15;;;;;;;16.70;15.60;;;17.20;99.90;;;;;;4903014;29;20207;-81
2023/03/30 14:48:44;;;;;;;19.70;18.47;;;16.90;99.90;;;;;;4902528;29;20190;-81
2023/03/30 14:51:20;;;;;;;20.93;19.63;;;16.80;99.90;;;;;;4902742;29;20482;-82
2023/03/30 14:53:46;;;;;;;31.60;30.00;;;16.70;99.90;;;;;;4902394;29;20186;-82
2023/03/30 14:56:14;;;;;;;42.97;40.87;;;16.70;99.90;;;;;;4915953;29;20222;-82
2023/03/30 14:58:42;;;;;;;39.37;37.27;;;16.70;99.90;;;;;;4904363;29;20194;-82
2023/03/30 15:01:15;;;;;;;46.40;43.87;;;16.70;99.90;;;;;;4912753;29;20190;-82
2023/03/30 15:03:41;;;;;;;60.47;57.17;;;16.70;99.90;;;;;;4909050;29;20934;-83
2023/03/30 15:06:12;;;;;;;60.53;57.60;;;16.70;99.90;;;;;;4919335;29;20576;-83
2023/03/30 15:08:39;;;;;;;24.33;22.50;;;16.80;99.90;;;;;;4901880;29;20282;-83
2023/03/30 15:11:24;;;;;;;15.43;14.33;;;17.10;99.90;;;;;;4901907;29;20627;-82
2023/03/30 15:14:05;;;;;;;13.80;12.90;;;17.00;99.90;;;;;;4902230;29;20187;-83
2023/03/30 15:16:34;;;;;;;17.03;16.10;;;16.80;99.90;;;;;;4935694;23;20233;-78
2023/03/30 15:19:10;;;;;;;46.37;44.00;;;16.50;99.90;;;;;;4939577;29;20190;-77
2023/03/30 15:21:37;;;;;;;40.47;38.30;;;16.40;99.90;;;;;;4924343;29;20182;-79
2023/03/30 15:24:15;;;;;;;39.63;37.43;;;16.30;99.90;;;;;;4942500;29;20190;-79
2023/03/30 15:26:45;;;;;;;14.17;13.13;;;16.50;99.90;;;;;;4909340;29;20206;-80
2023/03/30 15:29:16;;;;;;;16.93;15.67;;;17.70;99.90;;;;;;4902517;29;20187;-78
2023/03/30 15:31:43;;;;;;;11.57;10.63;;;18.50;99.90;;;;;;4920561;29;20202;-79
2023/03/30 15:34:16;;;;;;;7.50;6.80;;;18.40;99.90;;;;;;4901577;29;20702;-79
2023/03/30 15:36:42;;;;;;;7.50;7.07;;;17.50;99.90;;;;;;4902354;29;20590;-79
2023/03/30 15:39:22;;;;;;;12.60;11.60;;;16.90;99.90;;;;;;4918524;29;20286;-78
2023/03/30 15:42:03;;;;;;;18.20;17.03;;;16.60;99.90;;;;;;4901642;29;20188;-79
2023/03/30 15:44:34;;;;;;;25.47;23.77;;;16.30;99.90;;;;;;4902137;29;20191;-79
2023/03/30 15:47:00;;;;;;;61.10;57.77;;;16.10;99.90;;;;;;4902140;29;20668;-79
2023/03/30 15:49:41;;;;;;;76.47;72.50;;;16.00;99.90;;;;;;4901739;29;20183;-79
2023/03/30 15:52:17;;;;;;;87.97;83.57;;;16.00;99.90;;;;;;4919595;29;20214;-79
2023/03/30 15:54:49;;;;;;;89.30;84.87;;;15.80;99.90;;;;;;4911230;29;20663;-78